Time;durP1;ratioP1;P1;durP2;ratioP2;P2;SDS_P1;SDS_P2;PMS_P1;PMS_P2;Temp;Humidity;BMP_temperature;BMP_pressure;BME280_temperature;BME280_humidity;BME280_pressure;Samples;Min_cycle;Max_cycle;Signal;HPM_P1;HPM_P2
2021/04/08 00:00:02;;;;;;;;;;;;;;;-0.47;74.26;99642.22;4824731;29;19978;-65
2021/04/08 00:02:31;;;;;;;;;;;;;;;-0.47;74.41;99647.22;4825127;29;20395;-66
2021/04/08 00:04:59;;;;;;;;;;;;;;;-0.44;74.38;99657.38;4824824;29;19929;-66
2021/04/08 00:07:27;;;;;;;;;;;;;;;-0.37;74.52;99644.31;4824814;29;19928;-66
2021/04/08 00:09:55;;;;;;;;;;;;;;;-0.33;74.70;99665.34;4824639;29;19936;-66
2021/04/08 00:12:23;;;;;;;;;;;;;;;-0.32;74.44;99662.91;4827021;29;19936;-65
2021/04/08 00:14:50;;;;;;;;;;;;;;;-0.29;74.23;99652.97;4828117;29;19978;-67
2021/04/08 00:17:19;;;;;;;;;;;;;;;-0.24;74.55;99656.53;4828085;29;19936;-65
2021/04/08 00:19:46;;;;;;;;;;;;;;;-0.25;74.75;99646.47;4828162;29;19936;-66
2021/04/08 00:22:14;;;;;;;;;;;;;;;-0.26;74.52;99645.59;4827990;29;20264;-66
2021/04/08 00:24:42;;;;;;;;;;;;;;;-0.22;74.63;99647.47;4827936;29;19933;-67
2021/04/08 00:27:09;;;;;;;;;;;;;;;-0.20;74.51;99643.34;4827884;29;19986;-66
2021/04/08 00:29:37;;;;;;;;;;;;;;;-0.15;74.58;99649.41;4827990;29;19929;-66
2021/04/08 00:32:05;;;;;;;;;;;;;;;-0.11;74.43;99648.75;4827730;29;20035;-66
2021/04/08 00:34:34;;;;;;;;;;;;;;;-0.18;74.29;99646.78;4827762;29;19932;-65
2021/04/08 00:37:02;;;;;;;;;;;;;;;-0.15;74.59;99651.94;4827759;29;20349;-65
2021/04/08 00:39:29;;;;;;;;;;;;;;;-0.15;74.01;99646.91;4827839;29;19933;-66
2021/04/08 00:41:59;;;;;;;;;;;;;;;-0.12;74.10;99656.22;4827565;29;19985;-67
2021/04/08 00:44:26;;;;;;;;;;;;;;;-0.08;74.00;99658.03;4827588;29;20384;-65
2021/04/08 00:46:54;;;;;;;;;;;;;;;-0.09;74.08;99662.19;4827548;29;19986;-66
2021/04/08 00:49:22;;;;;;;;;;;;;;;-0.14;73.79;99663.66;4827443;29;19972;-66
2021/04/08 00:51:51;;;;;;;;;;;;;;;-0.18;73.67;99668.50;4827034;29;19929;-66
2021/04/08 00:54:19;;;;;;;;;;;;;;;-0.20;73.87;99665.94;4827437;29;20063;-66
2021/04/08 00:56:47;;;;;;;;;;;;;;;-0.24;73.64;99670.75;4827176;29;19929;-65
2021/04/08 00:59:15;;;;;;;;;;;;;;;-0.24;73.76;99668.25;4827630;29;19964;-66
2021/04/08 01:01:43;;;;;;;;;;;;;;;-0.31;73.75;99664.59;4827195;29;19932;-66
2021/04/08 01:04:11;;;;;;;;;;;;;;;-0.39;73.69;99665.09;4827278;29;19929;-65
2021/04/08 01:06:38;;;;;;;;;;;;;;;-0.46;73.73;99666.50;4827265;29;19929;-67
2021/04/08 01:09:07;;;;;;;;;;;;;;;-0.57;73.93;99660.16;4827540;29;19929;-67
2021/04/08 01:11:34;;;;;;;;;;;;;;;-0.64;74.20;99668.19;4826991;29;19929;-67
2021/04/08 01:14:02;;;;;;;;;;;;;;;-0.64;73.87;99663.19;4827119;29;19932;-65
2021/04/08 01:16:35;;;;;;;;;;;;;;;-0.65;74.28;99666.50;4827085;29;20273;-66
2021/04/08 01:19:15;;;;;;;;;;;;;;;-0.62;74.35;99665.78;4827119;29;19981;-66
2021/04/08 01:21:46;;;;;;;;;;;;;;;-0.63;74.53;99669.94;4826618;29;19929;-65
2021/04/08 01:24:32;;;;;;;;;;;;;;;-0.58;74.33;99673.50;4827321;29;20346;-65
2021/04/08 01:27:11;;;;;;;;;;;;;;;-0.62;74.40;99669.13;4827009;29;20391;-66
2021/04/08 01:29:48;;;;;;;;;;;;;;;-0.65;74.66;99661.50;4826938;29;19928;-65
2021/04/08 01:32:18;;;;;;;;;;;;;;;-0.64;74.03;99673.22;4826771;29;19936;-65
2021/04/08 01:34:49;;;;;;;;;;;;;;;-0.62;74.23;99671.63;4826773;29;19929;-65
2021/04/08 01:37:19;;;;;;;;;;;;;;;-0.60;74.36;99674.22;4826858;29;19928;-67
2021/04/08 01:39:48;;;;;;;;;;;;;;;-0.58;74.39;99670.97;4826819;29;19933;-65
2021/04/08 01:42:16;;;;;;;;;;;;;;;-0.56;74.35;99671.91;4826532;29;19928;-65
2021/04/08 01:44:45;;;;;;;;;;;;;;;-0.52;74.41;99668.72;4826654;29;20434;-66
2021/04/08 01:47:15;;;;;;;;;;;;;;;-0.45;74.44;99668.19;4826653;29;19929;-65
2021/04/08 01:49:57;;;;;;;;;;;;;;;-0.34;74.51;99669.53;4825609;29;19957;-66
2021/04/08 01:52:25;;;;;;;;;;;;;;;-0.33;74.19;99667.84;4826624;29;20436;-65
2021/04/08 01:54:56;;;;;;;;;;;;;;;-0.28;74.42;99672.25;4826472;29;19933;-66
2021/04/08 01:57:25;;;;;;;;;;;;;;;-0.25;74.61;99669.03;4825243;29;20438;-65
2021/04/08 01:59:53;;;;;;;;;;;;;;;-0.11;74.84;99668.81;4826475;29;19992;-66
2021/04/08 02:02:21;;;;;;;;;;;;;;;0.05;74.58;99669.44;4826259;29;19928;-65
2021/04/08 02:04:51;;;;;;;;;;;;;;;0.14;74.71;99665.66;4826369;29;19982;-66
2021/04/08 02:07:20;;;;;;;;;;;;;;;0.19;74.44;99658.28;4826666;29;19929;-66
2021/04/08 02:09:49;;;;;;;;;;;;;;;0.26;74.48;99657.75;4826601;29;19968;-67
2021/04/08 02:12:18;;;;;;;;;;;;;;;0.28;74.55;99653.63;4826053;29;19928;-66
2021/04/08 02:14:46;;;;;;;;;;;;;;;0.31;74.71;99647.06;4826750;29;20390;-65
2021/04/08 02:17:17;;;;;;;;;;;;;;;0.30;74.90;99650.38;4826215;29;19929;-65
2021/04/08 02:19:46;;;;;;;;;;;;;;;0.29;74.96;99648.66;4826515;29;19928;-65
2021/04/08 02:22:14;;;;;;;;;;;;;;;0.27;75.19;99656.94;4825970;29;19932;-65
2021/04/08 02:24:43;;;;;;;;;;;;;;;0.27;75.21;99659.44;4826099;29;20291;-65
2021/04/08 02:27:12;;;;;;;;;;;;;;;0.27;75.10;99661.94;4826060;29;20382;-65
2021/04/08 02:29:40;;;;;;;;;;;;;;;0.24;75.31;99651.81;4826024;29;19936;-65
2021/04/08 02:32:09;;;;;;;;;;;;;;;0.24;75.29;99662.69;4825861;29;19928;-65
2021/04/08 02:34:37;;;;;;;;;;;;;;;0.27;75.48;99661.94;4825195;29;19953;-66
2021/04/08 02:37:04;;;;;;;;;;;;;;;0.30;75.36;99662.06;4825879;29;19932;-66
2021/04/08 02:39:32;;;;;;;;;;;;;;;0.29;75.54;99671.25;4825893;29;19933;-66
2021/04/08 02:42:01;;;;;;;;;;;;;;;0.25;75.77;99661.03;4825801;29;19929;-66
2021/04/08 02:44:28;;;;;;;;;;;;;;;0.22;75.70;99668.44;4825815;29;20311;-66
2021/04/08 02:46:56;;;;;;;;;;;;;;;0.23;75.82;99665.13;4825758;29;19985;-65
2021/04/08 02:49:24;;;;;;;;;;;;;;;0.29;75.89;99667.91;4825708;29;19932;-65
2021/04/08 02:51:54;;;;;;;;;;;;;;;0.36;75.78;99677.38;4825631;29;19952;-66
2021/04/08 02:54:26;;;;;;;;;;;;;;;0.40;75.93;99675.06;4825742;29;19996;-66
2021/04/08 02:56:56;;;;;;;;;;;;;;;0.44;75.83;99673.50;4825438;29;19956;-65
2021/04/08 02:59:26;;;;;;;;;;;;;;;0.51;75.84;99673.81;4825635;29;19986;-65
2021/04/08 03:01:58;;;;;;;;;;;;;;;0.56;75.89;99671.47;4824435;29;19933;-65
2021/04/08 03:04:27;;;;;;;;;;;;;;;0.57;76.14;99678.22;4825455;29;19935;-65
2021/04/08 03:06:55;;;;;;;;;;;;;;;0.60;76.11;99678.34;4825448;29;19936;-65
2021/04/08 03:09:29;;;;;;;;;;;;;;;0.64;76.16;99677.66;4824349;29;20337;-65
2021/04/08 03:12:00;;;;;;;;;;;;;;;0.68;76.08;99676.94;4825381;29;19929;-65
2021/04/08 03:14:32;;;;;;;;;;;;;;;0.74;76.45;99687.25;4825386;29;19936;-65
2021/04/08 03:17:01;;;;;;;;;;;;;;;0.77;76.34;99686.50;4825422;29;19929;-65
2021/04/08 03:19:29;;;;;;;;;;;;;;;0.82;76.52;99690.03;4825298;29;19933;-65
2021/04/08 03:21:58;;;;;;;;;;;;;;;0.82;76.76;99685.88;4825306;29;20399;-64
2021/04/08 03:24:28;;;;;;;;;;;;;;;0.84;76.95;99688.44;4825247;29;19929;-65
2021/04/08 03:26:56;;;;;;;;;;;;;;;0.82;77.15;99690.88;4825243;29;19929;-65
2021/04/08 03:29:24;;;;;;;;;;;;;;;0.82;77.24;99688.38;4825153;29;19933;-64
2021/04/08 03:31:54;;;;;;;;;;;;;;;0.83;77.40;99700.16;4825104;29;19936;-65
2021/04/08 03:34:22;;;;;;;;;;;;;;;0.81;77.98;99693.34;4825043;29;20411;-64
2021/04/08 03:36:51;;;;;;;;;;;;;;;0.80;78.30;99694.13;4825141;29;20364;-65
2021/04/08 03:39:19;;;;;;;;;;;;;;;0.76;78.78;99699.84;4825063;29;20410;-65
2021/04/08 03:41:46;;;;;;;;;;;;;;;0.75;78.78;99696.47;4825063;29;19936;-65
2021/04/08 03:44:15;;;;;;;;;;;;;;;0.74;79.22;99707.34;4824916;29;19933;-65
2021/04/08 03:46:44;;;;;;;;;;;;;;;0.76;79.19;99699.84;4828036;29;19982;-65
2021/04/08 03:49:14;;;;;;;;;;;;;;;0.77;79.82;99697.38;4828614;29;19929;-65
2021/04/08 03:51:42;;;;;;;;;;;;;;;0.76;79.82;99702.38;4828549;29;20031;-64
2021/04/08 03:54:12;;;;;;;;;;;;;;;0.74;80.41;99707.34;4828684;29;19936;-65
2021/04/08 03:56:42;;;;;;;;;;;;;;;0.76;80.62;99705.75;4828392;29;20346;-65
2021/04/08 03:59:10;;;;;;;;;;;;;;;0.75;80.81;99711.53;4828526;29;19929;-64
2021/04/08 04:01:38;;;;;;;;;;;;;;;0.75;81.09;99701.50;4828703;29;19993;-64
2021/04/08 04:04:07;;;;;;;;;;;;;;;0.76;81.34;99704.88;4828322;29;19929;-64
2021/04/08 04:06:40;;;;;;;;;;;;;;;0.78;81.47;99704.13;4828229;29;19929;-64
2021/04/08 04:09:11;;;;;;;;;;;;;;;0.80;81.33;99707.56;4828594;29;19945;-65
2021/04/08 04:11:39;;;;;;;;;;;;;;;0.83;81.55;99707.69;4828190;29;20383;-64
2021/04/08 04:14:08;;;;;;;;;;;;;;;0.82;81.85;99705.97;4828088;29;19960;-65
2021/04/08 04:16:37;;;;;;;;;;;;;;;0.83;81.87;99702.66;4828590;29;19929;-64
2021/04/08 04:19:05;;;;;;;;;;;;;;;0.86;82.13;99711.97;4828071;29;20508;-64
2021/04/08 04:21:33;;;;;;;;;;;;;;;0.86;82.24;99710.31;4828209;29;20372;-66
2021/04/08 04:24:02;;;;;;;;;;;;;;;0.89;82.56;99717.94;4827960;29;19928;-64
2021/04/08 04:26:29;;;;;;;;;;;;;;;0.89;82.22;99712.91;4827835;29;19929;-64
2021/04/08 04:28:58;;;;;;;;;;;;;;;0.89;82.70;99717.94;4828164;29;20365;-65
2021/04/08 04:31:25;;;;;;;;;;;;;;;0.91;82.73;99716.34;4827771;29;20383;-64
2021/04/08 04:33:53;;;;;;;;;;;;;;;0.88;83.04;99718.75;4827781;29;20300;-64
2021/04/08 04:36:21;;;;;;;;;;;;;;;0.89;82.95;99727.16;4827616;29;20436;-64
2021/04/08 04:38:49;;;;;;;;;;;;;;;0.90;82.95;99719.69;4827691;29;19936;-64
2021/04/08 04:41:17;;;;;;;;;;;;;;;0.95;83.10;99719.84;4827668;29;19981;-64
2021/04/08 04:43:45;;;;;;;;;;;;;;;1.01;83.21;99718.41;4827921;29;19929;-64
2021/04/08 04:46:13;;;;;;;;;;;;;;;1.12;83.31;99719.69;4827545;29;19929;-64
2021/04/08 04:48:41;;;;;;;;;;;;;;;1.24;83.36;99727.66;4827539;29;19929;-65
2021/04/08 04:51:08;;;;;;;;;;;;;;;1.29;83.36;99721.16;4827484;29;19929;-64
2021/04/08 04:53:36;;;;;;;;;;;;;;;1.37;83.59;99728.13;4827735;29;19936;-65
2021/04/08 04:56:05;;;;;;;;;;;;;;;1.40;83.52;99728.22;4827128;29;19929;-64
2021/04/08 04:58:34;;;;;;;;;;;;;;;1.43;83.64;99733.34;4826734;29;19936;-65
2021/04/08 05:01:01;;;;;;;;;;;;;;;1.47;83.52;99741.06;4827327;29;19929;-65
2021/04/08 05:03:29;;;;;;;;;;;;;;;1.51;83.42;99737.00;4827545;29;19956;-65
2021/04/08 05:05:56;;;;;;;;;;;;;;;1.54;83.41;99742.13;4826327;29;19929;-65
2021/04/08 05:08:24;;;;;;;;;;;;;;;1.58;83.29;99743.97;4827111;29;20027;-65
2021/04/08 05:10:52;;;;;;;;;;;;;;;1.61;83.90;99751.63;4826058;29;19929;-65
2021/04/08 05:13:20;;;;;;;;;;;;;;;1.67;83.54;99744.28;4827047;29;19929;-65
2021/04/08 05:15:55;;;;;;;;;;;;;;;1.73;83.79;99752.03;4827080;29;19937;-65
2021/04/08 05:18:23;;;;;;;;;;;;;;;1.77;84.18;99757.25;4827031;29;19929;-65
2021/04/08 05:20:50;;;;;;;;;;;;;;;1.83;83.33;99757.44;4856764;29;19935;-64
2021/04/08 05:23:18;;;;;;;;;;;;;;;1.90;84.09;99763.53;4827307;29;19929;-65
2021/04/08 05:25:46;;;;;;;;;;;;;;;1.92;83.58;99767.00;4826953;29;19935;-64
2021/04/08 05:28:13;;;;;;;;;;;;;;;1.92;83.34;99769.50;4826789;29;20281;-65
2021/04/08 05:30:41;;;;;;;;;;;;;;;1.94;83.59;99775.44;4826872;29;19928;-65
2021/04/08 05:33:10;;;;;;;;;;;;;;;1.94;83.01;99783.84;4826807;29;20356;-65
2021/04/08 05:35:38;;;;;;;;;;;;;;;1.95;83.75;99783.03;4826824;29;19929;-65
2021/04/08 05:38:06;;;;;;;;;;;;;;;1.99;83.32;99781.50;4826924;29;19936;-65
2021/04/08 05:40:33;;;;;;;;;;;;;;;2.06;83.63;99790.13;4826763;29;19936;-66
2021/04/08 05:43:01;;;;;;;;;;;;;;;2.08;83.02;99781.81;4826753;29;19986;-66
2021/04/08 05:45:31;;;;;;;;;;;;;;;2.12;83.25;99791.16;4825569;29;19982;-66
2021/04/08 05:47:59;;;;;;;;;;;;;;;2.18;82.86;99795.56;4826527;29;19929;-67
2021/04/08 05:50:27;;;;;;;;;;;;;;;2.21;82.71;99799.03;4826647;29;20315;-66
2021/04/08 05:52:55;;;;;;;;;;;;;;;2.28;82.85;99800.13;4826496;29;19929;-67
2021/04/08 05:55:23;;;;;;;;;;;;;;;2.35;82.84;99805.38;4826295;29;19929;-68
2021/04/08 05:57:51;;;;;;;;;;;;;;;2.42;82.44;99812.38;4826494;29;19936;-67
2021/04/08 06:00:19;;;;;;;;;;;;;;;2.47;82.50;99805.78;4826482;29;20441;-67
2021/04/08 06:02:47;;;;;;;;;;;;;;;2.56;82.10;99815.34;4826369;29;20390;-67
2021/04/08 06:05:15;;;;;;;;;;;;;;;2.63;82.09;99813.06;4826644;29;20414;-67
2021/04/08 06:07:44;;;;;;;;;;;;;;;2.71;81.61;99819.19;4826268;29;19935;-67
2021/04/08 06:10:12;;;;;;;;;;;;;;;2.76;81.26;99813.47;4825266;29;19928;-68
2021/04/08 06:12:42;;;;;;;;;;;;;;;2.82;81.88;99811.13;4826282;29;19967;-68
2021/04/08 06:15:11;;;;;;;;;;;;;;;2.87;81.00;99813.00;4826215;29;20019;-69
2021/04/08 06:17:39;;;;;;;;;;;;;;;2.94;80.80;99824.13;4825991;29;19928;-70
2021/04/08 06:20:11;;;;;;;;;;;;;;;3.00;80.96;99819.28;4826179;29;20354;-71
2021/04/08 06:22:56;;;;;;;;;;;;;;;3.00;80.33;99825.16;4826008;29;19929;-72
2021/04/08 06:25:28;;;;;;;;;;;;;;;3.00;80.34;99835.25;4824869;29;19929;-72
2021/04/08 06:27:56;;;;;;;;;;;;;;;3.01;79.96;99831.06;4826046;29;20363;-71
2021/04/08 06:30:24;;;;;;;;;;;;;;;3.01;79.72;99836.97;4825828;29;19936;-71
2021/04/08 06:32:53;;;;;;;;;;;;;;;3.04;79.59;99841.25;4825880;29;20027;-71
2021/04/08 06:35:22;;;;;;;;;;;;;;;3.02;79.51;99838.69;4855105;29;19928;-66
2021/04/08 06:37:51;;;;;;;;;;;;;;;3.02;79.30;99852.97;4825753;29;19933;-70
2021/04/08 06:40:21;;;;;;;;;;;;;;;3.06;79.80;99850.56;4825805;29;19972;-71
2021/04/08 06:42:52;;;;;;;;;;;;;;;3.08;79.46;99853.13;4824860;29;19985;-67
2021/04/08 06:45:23;;;;;;;;;;;;;;;3.08;79.44;99848.09;4825830;29;19929;-66
2021/04/08 06:47:53;;;;;;;;;;;;;;;3.10;79.21;99841.44;4825689;29;19961;-67
2021/04/08 06:50:22;;;;;;;;;;;;;;;3.15;78.77;99857.56;4825808;29;19936;-67
2021/04/08 06:52:51;;;;;;;;;;;;;;;3.19;79.32;99852.66;4825546;29;19929;-68
2021/04/08 06:55:20;;;;;;;;;;;;;;;3.26;79.19;99851.19;4825386;29;20387;-67
2021/04/08 06:57:49;;;;;;;;;;;;;;;3.34;78.68;99853.13;4825613;29;19986;-69
2021/04/08 07:00:17;;;;;;;;;;;;;;;3.49;79.00;99861.97;4825403;29;19975;-68
2021/04/08 07:02:45;;;;;;;;;;;;;;;3.61;78.34;99858.16;4825498;29;19956;-67
2021/04/08 07:05:13;;;;;;;;;;;;;;;3.67;78.26;99867.59;4825349;29;19929;-65
2021/04/08 07:07:41;;;;;;;;;;;;;;;3.79;77.64;99868.78;4825483;29;20379;-63
2021/04/08 07:10:09;;;;;;;;;;;;;;;3.90;77.55;99872.50;4825258;29;20375;-64
2021/04/08 07:12:38;;;;;;;;;;;;;;;4.04;77.08;99873.72;4825297;29;19983;-64
2021/04/08 07:15:06;;;;;;;;;;;;;;;4.21;76.89;99875.84;4825286;29;20299;-64
2021/04/08 07:17:34;;;;;;;;;;;;;;;4.34;76.84;99882.97;4825236;29;20563;-64
2021/04/08 07:20:04;;;;;;;;;;;;;;;4.38;76.08;99887.28;4808626;29;19928;-64
2021/04/08 07:22:32;;;;;;;;;;;;;;;4.43;76.14;99888.25;4825195;29;19936;-65
2021/04/08 07:25:00;;;;;;;;;;;;;;;4.45;75.91;99887.50;4825430;29;20355;-65
2021/04/08 07:27:33;;;;;;;;;;;;;;;4.50;75.33;99888.47;4825421;29;19929;-64
2021/04/08 07:30:02;;;;;;;;;;;;;;;4.58;75.18;99893.75;4825462;29;19929;-66
2021/04/08 07:32:32;;;;;;;;;;;;;;;4.79;74.52;99895.94;4824525;29;20268;-64
2021/04/08 07:35:01;;;;;;;;;;;;;;;5.10;74.91;99899.28;4824978;29;19935;-64
2021/04/08 07:37:30;;;;;;;;;;;;;;;5.39;74.55;99905.03;4825097;29;19929;-66
2021/04/08 07:39:59;;;;;;;;;;;;;;;5.60;72.88;99907.19;4825264;29;19929;-65
2021/04/08 07:42:29;;;;;;;;;;;;;;;5.76;72.23;99914.34;4825086;29;19933;-64
2021/04/08 07:44:58;;;;;;;;;;;;;;;6.05;71.89;99908.22;4824943;29;19929;-65
2021/04/08 07:47:28;;;;;;;;;;;;;;;6.40;71.89;99926.69;4824915;29;20403;-64
2021/04/08 07:49:56;;;;;;;;;;;;;;;6.64;70.31;99925.50;4825340;29;20375;-65
2021/04/08 07:52:26;;;;;;;;;;;;;;;6.72;69.24;99930.69;4824748;29;19929;-65
2021/04/08 07:54:57;;;;;;;;;;;;;;;6.74;68.90;99927.34;4824899;29;20048;-64
2021/04/08 07:57:25;;;;;;;;;;;;;;;6.91;68.22;99934.44;4825002;29;19939;-63
2021/04/08 07:59:53;;;;;;;;;;;;;;;6.98;67.54;99929.47;4824846;29;19929;-65
2021/04/08 08:02:24;;;;;;;;;;;;;;;7.25;67.55;99939.22;4825492;29;19929;-66
2021/04/08 08:05:15;;;;;;;;;;;;;;;7.47;66.43;99941.28;4823493;29;19954;-64
2021/04/08 08:07:43;;;;;;;;;;;;;;;7.68;66.49;99936.53;4823638;29;19936;-64
2021/04/08 08:10:15;;;;;;;;;;;;;;;7.93;65.40;99938.59;4825040;29;19928;-64
2021/04/08 08:12:42;;;;;;;;;;;;;;;7.98;63.53;99939.53;4824682;29;19929;-64
2021/04/08 08:15:18;;;;;;;;;;;;;;;7.91;61.99;99945.38;4824935;29;19929;-66
2021/04/08 08:17:46;;;;;;;;;;;;;;;7.95;62.50;99957.28;4824606;29;20028;-65
2021/04/08 08:20:16;;;;;;;;;;;;;;;7.81;61.88;99956.22;4824638;29;20464;-66
2021/04/08 08:22:45;;;;;;;;;;;;;;;7.61;61.27;99960.13;4824639;29;20019;-64
2021/04/08 08:25:13;;;;;;;;;;;;;;;7.51;60.44;99957.44;4824540;29;19936;-64
2021/04/08 08:27:45;;;;;;;;;;;;;;;7.58;61.29;99954.16;4824501;29;19929;-65
2021/04/08 08:30:15;;;;;;;;;;;;;;;7.60;61.32;99970.28;4853934;29;20302;-64
2021/04/08 08:32:53;;;;;;;;;;;;;;;7.53;60.90;99966.78;4825823;29;19936;-64
2021/04/08 08:35:23;;;;;;;;;;;;;;;7.47;60.68;99975.97;4827684;29;19936;-64
2021/04/08 08:37:51;;;;;;;;;;;;;;;7.31;60.88;99990.97;4827919;29;19929;-64
2021/04/08 08:40:21;;;;;;;;;;;;;;;7.10;61.37;99990.56;4827618;29;19977;-65
2021/04/08 08:42:51;;;;;;;;;;;;;;;6.89;61.78;99986.78;4826626;29;19952;-65
2021/04/08 08:45:20;;;;;;;;;;;;;;;6.77;62.10;99995.03;4827645;29;20452;-64
2021/04/08 08:47:51;;;;;;;;;;;;;;;6.76;62.48;99985.72;4827950;29;19929;-64
2021/04/08 08:50:19;;;;;;;;;;;;;;;6.74;62.32;99990.75;4827600;29;19929;-64
2021/04/08 08:52:50;;;;;;;;;;;;;;;6.86;62.30;99989.28;4827246;29;20288;-64
2021/04/08 08:55:19;;;;;;;;;;;;;;;7.14;62.49;99979.69;4827218;29;20380;-65
2021/04/08 08:57:49;;;;;;;;;;;;;;;7.37;62.23;99980.91;4826293;29;19929;-63
2021/04/08 09:00:18;;;;;;;;;;;;;;;7.54;61.35;99978.66;4827563;29;19929;-64
2021/04/08 09:03:07;;;;;;;;;;;;;;;7.84;60.96;99974.06;4826901;29;19928;-64
2021/04/08 09:05:56;;;;;;;;;;;;;;;8.13;59.34;99976.16;4826701;29;19968;-65
2021/04/08 09:08:50;;;;;;;;;;;;;;;8.40;58.89;99969.75;4826441;29;19929;-63
2021/04/08 09:11:23;;;;;;;;;;;;;;;8.57;57.89;99977.59;4827251;29;19962;-65
2021/04/08 09:13:52;;;;;;;;;;;;;;;8.72;56.98;99981.19;4827073;29;19951;-66
2021/04/08 09:16:19;;;;;;;;;;;;;;;8.91;56.46;99977.16;4827067;29;19936;-66
2021/04/08 09:18:58;;;;;;;;;;;;;;;8.73;55.73;99976.97;4827247;29;20378;-66
2021/04/08 09:21:26;;;;;;;;;;;;;;;8.44;55.07;99978.28;4826971;29;19933;-64
2021/04/08 09:24:09;;;;;;;;;;;;;;;8.20;54.85;99983.03;4826881;29;19993;-66
2021/04/08 09:26:51;;;;;;;;;;;;;;;8.01;55.40;99982.75;5111883;27;20286;-64
2021/04/08 09:29:42;;;;;;;;;;;;;;;7.93;54.99;99996.19;5111956;28;20034;-64
2021/04/08 09:32:25;;;;;;;;;;;;;;;7.74;54.82;99992.53;5112119;28;19981;-64
2021/04/08 09:35:03;;;;;;;;;;;;;;;7.61;55.15;99995.69;5110367;27;19924;-64
2021/04/08 09:38:01;;;;;;;;;;;;;;;7.81;55.84;100004.50;5112091;28;19931;-65
2021/04/08 09:40:42;;;;;;;;;;;;;;;7.76;54.44;100011.19;5111437;28;20305;-66
2021/04/08 09:43:14;;;;;;;;;;;;;;;7.76;54.42;100013.72;5111988;28;20373;-64
2021/04/08 09:45:43;;;;;;;;;;;;;;;7.99;54.87;100014.91;5111886;28;20452;-65
2021/04/08 09:48:13;;;;;;;;;;;;;;;8.26;54.44;100018.69;5110206;28;19924;-65
2021/04/08 09:50:43;;;;;;;;;;;;;;;8.21;54.23;100030.47;5111531;28;20362;-64
2021/04/08 09:53:11;;;;;;;;;;;;;;;7.96;54.30;100030.16;5111356;28;20282;-64
2021/04/08 09:55:39;;;;;;;;;;;;;;;7.74;54.85;100032.31;5111247;28;19924;-64
2021/04/08 09:58:06;;;;;;;;;;;;;;;7.58;55.18;100026.16;5111393;28;19928;-65
2021/04/08 10:00:36;;;;;;;;;;;;;;;7.54;54.96;100028.59;5111157;28;19963;-66
2021/04/08 10:03:05;;;;;;;;;;;;;;;7.44;54.36;100037.72;5111254;28;20406;-65
2021/04/08 10:05:33;;;;;;;;;;;;;;;7.40;54.98;100035.97;5111050;28;20331;-65
2021/04/08 10:08:04;;;;;;;;;;;;;;;7.30;54.81;100024.81;5111220;28;19924;-64
2021/04/08 10:10:39;;;;;;;;;;;;;;;7.19;55.79;100025.44;5111138;28;20009;-64
2021/04/08 10:13:17;;;;;;;;;;;;;;;7.39;56.20;100029.16;5109831;28;19924;-64
2021/04/08 10:15:46;;;;;;;;;;;;;;;7.63;56.21;100028.75;5111126;28;20380;-66
2021/04/08 10:18:15;;;;;;;;;;;;;;;7.98;56.61;100030.16;5110898;28;19924;-64
2021/04/08 10:20:45;;;;;;;;;;;;;;;8.43;56.06;100022.34;5110890;28;20289;-65
2021/04/08 10:23:13;;;;;;;;;;;;;;;8.79;56.55;100017.72;5110816;28;20339;-65
2021/04/08 10:25:41;;;;;;;;;;;;;;;9.20;55.85;100024.13;5121617;28;19935;-65
2021/04/08 10:28:08;;;;;;;;;;;;;;;9.37;54.99;100035.34;5131234;28;20377;-65
2021/04/08 10:30:38;;;;;;;;;;;;;;;9.81;54.80;100033.16;5131081;28;19924;-65
2021/04/08 10:33:18;;;;;;;;;;;;;;;9.84;53.46;100040.84;5131216;28;19923;-65
2021/04/08 10:35:47;;;;;;;;;;;;;;;9.39;53.96;100056.59;5131076;28;19924;-64
2021/04/08 10:38:15;;;;;;;;;;;;;;;8.90;53.78;100092.50;5117074;28;20326;-65
2021/04/08 10:40:50;;;;;;;;;;;;;;;7.97;55.54;100072.50;5117324;28;19928;-66
2021/04/08 10:43:19;;;;;;;;;;;;;;;7.18;57.95;100090.56;5117037;28;19924;-66
2021/04/08 10:45:53;;;;;;;;;;;;;;;6.48;59.39;100090.78;5117497;28;19977;-65
2021/04/08 10:48:22;;;;;;;;;;;;;;;6.07;61.13;100089.84;5099017;28;19977;-66
2021/04/08 10:50:52;;;;;;;;;;;;;;;6.00;61.65;100087.13;5117155;28;19924;-65
2021/04/08 10:53:20;;;;;;;;;;;;;;;6.19;62.67;100074.06;5117035;28;19927;-64
2021/04/08 10:55:48;;;;;;;;;;;;;;;6.64;63.36;100077.66;5117186;28;19931;-64
2021/04/08 10:58:25;;;;;;;;;;;;;;;7.20;63.22;100072.81;5117291;28;19977;-67
2021/04/08 11:00:53;;;;;;;;;;;;;;;7.59;63.04;100073.56;5116868;28;19924;-64
2021/04/08 11:03:22;;;;;;;;;;;;;;;8.01;62.37;100064.09;5116802;28;19953;-64
2021/04/08 11:05:51;;;;;;;;;;;;;;;8.43;61.65;100073.22;5116657;28;19927;-65
2021/04/08 11:08:20;;;;;;;;;;;;;;;8.43;59.32;100075.75;5116681;28;20300;-64
2021/04/08 11:10:48;;;;;;;;;;;;;;;8.60;58.67;100071.75;5116748;28;19924;-64
2021/04/08 11:13:16;;;;;;;;;;;;;;;8.92;58.66;100070.50;5116842;28;19973;-66
2021/04/08 11:15:45;;;;;;;;;;;;;;;9.19;58.49;100070.78;5132308;27;20020;-64
2021/04/08 11:18:14;;;;;;;;;;;;;;;9.51;57.66;100070.28;5116421;28;19931;-65
2021/04/08 11:20:43;;;;;;;;;;;;;;;9.85;56.26;100054.44;5116447;28;19924;-65
2021/04/08 11:23:13;;;;;;;;;;;;;;;10.03;54.77;100074.97;5116495;28;19931;-65
2021/04/08 11:25:41;;;;;;;;;;;;;;;10.07;52.72;100066.53;5116019;28;19970;-65
2021/04/08 11:28:09;;;;;;;;;;;;;;;10.42;52.19;100059.97;5116314;28;20372;-65
2021/04/08 11:30:38;;;;;;;;;;;;;;;10.49;51.22;100059.19;5115891;28;19924;-65
2021/04/08 11:33:06;;;;;;;;;;;;;;;10.09;51.00;100075.03;5116257;28;19924;-65
2021/04/08 11:35:37;;;;;;;;;;;;;;;9.58;50.64;100094.97;5116203;28;20412;-65
2021/04/08 11:38:10;;;;;;;;;;;;;;;8.89;53.91;100111.19;5116254;28;19977;-64
2021/04/08 11:40:40;;;;;;;;;;;;;;;8.15;55.50;100124.47;5116522;28;19928;-65
2021/04/08 11:43:18;;;;;;;;;;;;;;;7.75;57.26;100133.94;5116069;28;19924;-66
2021/04/08 11:45:45;;;;;;;;;;;;;;;7.52;57.80;100124.22;5116015;28;19924;-64
2021/04/08 11:48:13;;;;;;;;;;;;;;;7.53;58.29;100139.50;5114939;28;19924;-66
2021/04/08 11:50:42;;;;;;;;;;;;;;;7.89;58.98;100137.59;5115884;28;19930;-65
2021/04/08 11:53:10;;;;;;;;;;;;;;;8.37;58.72;100139.28;5115915;28;19931;-66
2021/04/08 11:55:41;;;;;;;;;;;;;;;8.73;57.67;100122.00;5115945;28;19928;-65
2021/04/08 11:58:09;;;;;;;;;;;;;;;8.97;57.38;100117.22;5115872;28;19923;-65
2021/04/08 12:00:37;;;;;;;;;;;;;;;8.82;55.29;100124.66;5115616;28;20335;-67
2021/04/08 12:03:16;;;;;;;;;;;;;;;8.61;54.41;100140.47;5115710;28;19969;-66
2021/04/08 12:05:44;;;;;;;;;;;;;;;8.10;54.74;100149.81;5115585;28;20022;-65
2021/04/08 12:08:12;;;;;;;;;;;;;;;7.91;54.98;100152.88;5115934;28;19923;-66
2021/04/08 12:10:40;;;;;;;;;;;;;;;7.83;55.42;100160.34;5115475;28;19924;-65
2021/04/08 12:13:09;;;;;;;;;;;;;;;7.84;55.50;100174.78;5115377;28;19924;-66
2021/04/08 12:15:39;;;;;;;;;;;;;;;7.59;56.84;100199.69;5115775;28;19953;-64
2021/04/08 12:18:10;;;;;;;;;;;;;;;6.98;58.55;100182.38;5115340;28;19924;-66
2021/04/08 12:20:38;;;;;;;;;;;;;;;6.48;60.43;100179.53;5115371;28;19923;-64
2021/04/08 12:23:07;;;;;;;;;;;;;;;6.04;61.96;100170.00;5115205;28;20064;-64
2021/04/08 12:25:41;;;;;;;;;;;;;;;5.91;63.14;100162.91;5114828;28;19927;-64
2021/04/08 12:28:10;;;;;;;;;;;;;;;5.88;64.31;100168.75;5115292;28;19959;-64
2021/04/08 12:30:46;;;;;;;;;;;;;;;5.94;64.92;100174.00;5115067;28;19976;-65
2021/04/08 12:33:18;;;;;;;;;;;;;;;6.02;65.80;100164.06;5115192;28;19924;-65
2021/04/08 12:35:46;;;;;;;;;;;;;;;6.08;66.18;100169.25;5114984;28;19931;-65
2021/04/08 12:38:14;;;;;;;;;;;;;;;6.22;66.22;100165.38;5115015;28;20026;-64
2021/04/08 12:40:43;;;;;;;;;;;;;;;6.47;66.83;100167.69;5114657;28;20335;-64
2021/04/08 12:43:11;;;;;;;;;;;;;;;6.74;66.80;100163.22;5114757;28;20041;-65
2021/04/08 12:45:39;;;;;;;;;;;;;;;7.07;67.27;100177.47;5114811;28;19976;-65
2021/04/08 12:48:07;;;;;;;;;;;;;;;7.12;67.06;100183.50;5114717;28;19992;-65
2021/04/08 12:50:38;;;;;;;;;;;;;;;7.11;66.88;100185.19;5114821;28;19924;-65
2021/04/08 12:53:06;;;;;;;;;;;;;;;7.03;66.18;100193.47;5114871;28;19954;-65
2021/04/08 12:55:34;;;;;;;;;;;;;;;6.86;65.83;100208.34;5114701;28;19966;-65
2021/04/08 12:58:09;;;;;;;;;;;;;;;6.73;65.47;100221.53;5114636;28;20262;-64
2021/04/08 13:00:38;;;;;;;;;;;;;;;6.60;65.16;100263.50;5114387;28;19935;-65
2021/04/08 13:03:06;;;;;;;;;;;;;;;6.29;65.48;100258.47;5114677;28;19924;-64
2021/04/08 13:05:34;;;;;;;;;;;;;;;5.85;66.28;100261.53;5114529;28;19924;-64